sensor_id;sensor_type;location;lat;lon;timestamp;P1;durP1;ratioP1;P2;durP2;ratioP2
81221;SDS011;70691;52.492;13.420;2023-07-13T00:00:01;6.53;;;2.20;;
81221;SDS011;70691;52.492;13.420;2023-07-13T00:02:29;5.75;;;2.22;;
81221;SDS011;70691;52.492;13.420;2023-07-13T00:04:55;3.80;;;2.47;;
81221;SDS011;70691;52.492;13.420;2023-07-13T00:07:20;6.15;;;2.17;;
81221;SDS011;70691;52.492;13.420;2023-07-13T00:09:46;4.93;;;2.75;;
81221;SDS011;70691;52.492;13.420;2023-07-13T00:12:26;5.63;;;3.08;;
81221;SDS011;70691;52.492;13.420;2023-07-13T00:14:58;3.50;;;2.13;;
81221;SDS011;70691;52.492;13.420;2023-07-13T00:17:25;4.40;;;2.10;;
81221;SDS011;70691;52.492;13.420;2023-07-13T00:19:52;7.45;;;2.55;;
81221;SDS011;70691;52.492;13.420;2023-07-13T00:22:18;4.50;;;2.53;;
81221;SDS011;70691;52.492;13.420;2023-07-13T00:24:44;5.82;;;2.28;;
81221;SDS011;70691;52.492;13.420;2023-07-13T00:27:11;8.43;;;2.75;;
81221;SDS011;70691;52.492;13.420;2023-07-13T00:29:37;8.50;;;2.50;;
81221;SDS011;70691;52.492;13.420;2023-07-13T00:32:03;5.53;;;1.95;;
81221;SDS011;70691;52.492;13.420;2023-07-13T00:34:30;3.92;;;2.22;;
81221;SDS011;70691;52.492;13.420;2023-07-13T00:36:56;4.70;;;1.70;;
81221;SDS011;70691;52.492;13.420;2023-07-13T00:39:22;4.75;;;1.85;;
81221;SDS011;70691;52.492;13.420;2023-07-13T00:41:48;5.28;;;1.98;;
81221;SDS011;70691;52.492;13.420;2023-07-13T00:44:14;4.72;;;2.47;;
81221;SDS011;70691;52.492;13.420;2023-07-13T00:46:41;5.78;;;1.90;;
81221;SDS011;70691;52.492;13.420;2023-07-13T00:49:08;6.93;;;2.72;;
81221;SDS011;70691;52.492;13.420;2023-07-13T00:51:39;3.63;;;1.85;;
81221;SDS011;70691;52.492;13.420;2023-07-13T00:54:13;4.72;;;1.70;;
81221;SDS011;70691;52.492;13.420;2023-07-13T00:56:43;2.95;;;1.85;;
81221;SDS011;70691;52.492;13.420;2023-07-13T00:59:10;4.07;;;1.60;;
81221;SDS011;70691;52.492;13.420;2023-07-13T01:01:38;4.88;;;1.88;;
81221;SDS011;70691;52.492;13.420;2023-07-13T01:04:04;6.53;;;2.20;;
81221;SDS011;70691;52.492;13.420;2023-07-13T01:06:33;2.40;;;1.35;;
81221;SDS011;70691;52.492;13.420;2023-07-13T01:09:00;6.15;;;1.73;;
81221;SDS011;70691;52.492;13.420;2023-07-13T01:11:26;3.42;;;2.03;;
81221;SDS011;70691;52.492;13.420;2023-07-13T01:13:52;5.82;;;1.60;;
81221;SDS011;70691;52.492;13.420;2023-07-13T01:16:24;6.28;;;1.20;;
81221;SDS011;70691;52.492;13.420;2023-07-13T01:18:51;6.18;;;1.60;;
81221;SDS011;70691;52.492;13.420;2023-07-13T01:21:17;4.65;;;1.65;;
81221;SDS011;70691;52.492;13.420;2023-07-13T01:23:44;6.00;;;1.77;;
81221;SDS011;70691;52.492;13.420;2023-07-13T01:26:09;4.28;;;2.10;;
81221;SDS011;70691;52.492;13.420;2023-07-13T01:28:36;2.80;;;1.60;;
81221;SDS011;70691;52.492;13.420;2023-07-13T01:31:03;4.57;;;1.85;;
81221;SDS011;70691;52.492;13.420;2023-07-13T01:33:29;6.90;;;2.40;;
81221;SDS011;70691;52.492;13.420;2023-07-13T01:35:55;7.78;;;2.42;;
81221;SDS011;70691;52.492;13.420;2023-07-13T01:38:23;13.00;;;2.75;;
81221;SDS011;70691;52.492;13.420;2023-07-13T01:40:52;7.75;;;2.88;;
81221;SDS011;70691;52.492;13.420;2023-07-13T01:43:18;4.60;;;2.28;;
81221;SDS011;70691;52.492;13.420;2023-07-13T01:45:44;3.78;;;2.00;;
81221;SDS011;70691;52.492;13.420;2023-07-13T01:48:11;4.13;;;1.70;;
81221;SDS011;70691;52.492;13.420;2023-07-13T01:50:37;3.00;;;1.75;;
81221;SDS011;70691;52.492;13.420;2023-07-13T01:53:03;4.97;;;1.75;;
81221;SDS011;70691;52.492;13.420;2023-07-13T01:55:29;7.03;;;1.85;;
81221;SDS011;70691;52.492;13.420;2023-07-13T01:57:56;3.10;;;1.83;;
81221;SDS011;70691;52.492;13.420;2023-07-13T02:00:22;2.60;;;1.58;;
81221;SDS011;70691;52.492;13.420;2023-07-13T02:02:47;5.00;;;2.15;;
81221;SDS011;70691;52.492;13.420;2023-07-13T02:05:13;6.00;;;2.25;;
81221;SDS011;70691;52.492;13.420;2023-07-13T02:07:39;6.72;;;2.10;;
81221;SDS011;70691;52.492;13.420;2023-07-13T02:10:06;6.80;;;2.45;;
81221;SDS011;70691;52.492;13.420;2023-07-13T02:12:33;5.78;;;2.40;;
81221;SDS011;70691;52.492;13.420;2023-07-13T02:14:59;5.43;;;2.58;;
81221;SDS011;70691;52.492;13.420;2023-07-13T02:17:25;10.77;;;3.08;;
81221;SDS011;70691;52.492;13.420;2023-07-13T02:19:51;6.60;;;2.67;;
81221;SDS011;70691;52.492;13.420;2023-07-13T02:22:17;6.40;;;2.67;;
81221;SDS011;70691;52.492;13.420;2023-07-13T02:24:43;7.72;;;2.83;;
81221;SDS011;70691;52.492;13.420;2023-07-13T02:27:09;5.80;;;2.95;;
81221;SDS011;70691;52.492;13.420;2023-07-13T02:29:35;5.07;;;2.00;;
81221;SDS011;70691;52.492;13.420;2023-07-13T02:32:01;5.80;;;2.40;;
81221;SDS011;70691;52.492;13.420;2023-07-13T02:34:26;5.30;;;2.25;;
81221;SDS011;70691;52.492;13.420;2023-07-13T02:36:52;6.32;;;2.25;;
81221;SDS011;70691;52.492;13.420;2023-07-13T02:39:17;5.18;;;2.20;;
81221;SDS011;70691;52.492;13.420;2023-07-13T02:41:43;8.43;;;2.83;;
81221;SDS011;70691;52.492;13.420;2023-07-13T02:44:09;5.38;;;2.30;;
81221;SDS011;70691;52.492;13.420;2023-07-13T02:46:37;7.90;;;2.20;;
81221;SDS011;70691;52.492;13.420;2023-07-13T02:49:03;3.50;;;2.47;;
81221;SDS011;70691;52.492;13.420;2023-07-13T02:51:29;4.45;;;2.50;;
81221;SDS011;70691;52.492;13.420;2023-07-13T02:53:55;6.15;;;3.20;;
81221;SDS011;70691;52.492;13.420;2023-07-13T02:56:22;6.72;;;3.40;;
81221;SDS011;70691;52.492;13.420;2023-07-13T02:58:50;8.02;;;2.97;;
81221;SDS011;70691;52.492;13.420;2023-07-13T03:01:15;7.97;;;3.10;;
81221;SDS011;70691;52.492;13.420;2023-07-13T03:03:45;5.07;;;2.63;;
81221;SDS011;70691;52.492;13.420;2023-07-13T03:06:12;11.38;;;2.45;;
81221;SDS011;70691;52.492;13.420;2023-07-13T03:08:38;4.57;;;2.55;;
81221;SDS011;70691;52.492;13.420;2023-07-13T03:11:09;6.82;;;3.13;;
81221;SDS011;70691;52.492;13.420;2023-07-13T03:13:37;3.83;;;2.55;;
81221;SDS011;70691;52.492;13.420;2023-07-13T03:16:05;6.05;;;2.85;;
81221;SDS011;70691;52.492;13.420;2023-07-13T03:18:31;5.38;;;3.03;;
81221;SDS011;70691;52.492;13.420;2023-07-13T03:20:57;3.58;;;2.08;;
81221;SDS011;70691;52.492;13.420;2023-07-13T03:23:23;6.25;;;2.55;;
81221;SDS011;70691;52.492;13.420;2023-07-13T03:26:00;4.07;;;2.10;;
81221;SDS011;70691;52.492;13.420;2023-07-13T03:28:33;8.98;;;2.58;;
81221;SDS011;70691;52.492;13.420;2023-07-13T03:31:00;5.45;;;2.67;;
81221;SDS011;70691;52.492;13.420;2023-07-13T03:33:27;7.10;;;2.30;;
81221;SDS011;70691;52.492;13.420;2023-07-13T03:35:53;4.53;;;2.30;;
81221;SDS011;70691;52.492;13.420;2023-07-13T03:38:19;3.72;;;2.40;;
81221;SDS011;70691;52.492;13.420;2023-07-13T03:40:44;5.60;;;2.38;;
81221;SDS011;70691;52.492;13.420;2023-07-13T03:43:10;6.20;;;2.67;;
81221;SDS011;70691;52.492;13.420;2023-07-13T03:45:37;3.20;;;2.28;;
81221;SDS011;70691;52.492;13.420;2023-07-13T03:48:03;5.53;;;2.20;;
81221;SDS011;70691;52.492;13.420;2023-07-13T03:50:30;5.15;;;2.50;;
81221;SDS011;70691;52.492;13.420;2023-07-13T03:52:57;8.90;;;3.30;;
81221;SDS011;70691;52.492;13.420;2023-07-13T03:55:23;6.80;;;2.38;;
81221;SDS011;70691;52.492;13.420;2023-07-13T03:57:53;4.97;;;2.47;;
81221;SDS011;70691;52.492;13.420;2023-07-13T04:00:23;4.63;;;2.22;;
81221;SDS011;70691;52.492;13.420;2023-07-13T04:02:49;4.07;;;2.25;;
81221;SDS011;70691;52.492;13.420;2023-07-13T04:05:16;9.30;;;3.78;;
81221;SDS011;70691;52.492;13.420;2023-07-13T04:07:41;5.55;;;2.10;;
81221;SDS011;70691;52.492;13.420;2023-07-13T04:10:07;5.10;;;2.10;;
81221;SDS011;70691;52.492;13.420;2023-07-13T04:12:33;4.25;;;2.13;;
81221;SDS011;70691;52.492;13.420;2023-07-13T04:14:58;7.30;;;2.20;;
81221;SDS011;70691;52.492;13.420;2023-07-13T04:17:24;2.25;;;1.83;;
81221;SDS011;70691;52.492;13.420;2023-07-13T04:19:50;4.22;;;1.65;;
81221;SDS011;70691;52.492;13.420;2023-07-13T04:22:15;8.45;;;2.10;;
81221;SDS011;70691;52.492;13.420;2023-07-13T04:24:41;10.82;;;6.28;;
81221;SDS011;70691;52.492;13.420;2023-07-13T04:27:07;4.88;;;1.80;;
81221;SDS011;70691;52.492;13.420;2023-07-13T04:29:33;4.63;;;2.22;;
81221;SDS011;70691;52.492;13.420;2023-07-13T04:31:58;3.63;;;1.80;;
81221;SDS011;70691;52.492;13.420;2023-07-13T04:34:24;7.53;;;2.35;;
81221;SDS011;70691;52.492;13.420;2023-07-13T04:36:50;5.25;;;2.03;;
81221;SDS011;70691;52.492;13.420;2023-07-13T04:39:16;11.32;;;2.20;;
81221;SDS011;70691;52.492;13.420;2023-07-13T04:41:41;5.60;;;1.58;;
81221;SDS011;70691;52.492;13.420;2023-07-13T04:44:07;4.85;;;2.03;;
81221;SDS011;70691;52.492;13.420;2023-07-13T04:46:33;7.90;;;1.70;;
81221;SDS011;70691;52.492;13.420;2023-07-13T04:48:58;6.03;;;1.83;;
81221;SDS011;70691;52.492;13.420;2023-07-13T04:51:24;6.50;;;1.90;;
81221;SDS011;70691;52.492;13.420;2023-07-13T04:53:51;4.13;;;1.95;;
81221;SDS011;70691;52.492;13.420;2023-07-13T04:56:17;7.15;;;2.00;;
81221;SDS011;70691;52.492;13.420;2023-07-13T04:58:42;2.38;;;1.48;;
81221;SDS011;70691;52.492;13.420;2023-07-13T05:01:09;3.80;;;1.83;;
81221;SDS011;70691;52.492;13.420;2023-07-13T05:03:34;5.75;;;2.28;;
81221;SDS011;70691;52.492;13.420;2023-07-13T05:06:02;4.93;;;1.77;;
81221;SDS011;70691;52.492;13.420;2023-07-13T05:08:32;8.38;;;2.15;;
81221;SDS011;70691;52.492;13.420;2023-07-13T05:11:01;4.50;;;1.45;;
81221;SDS011;70691;52.492;13.420;2023-07-13T05:15:58;6.72;;;2.08;;
81221;SDS011;70691;52.492;13.420;2023-07-13T05:18:25;5.00;;;2.17;;
81221;SDS011;70691;52.492;13.420;2023-07-13T05:20:56;4.38;;;2.05;;
81221;SDS011;70691;52.492;13.420;2023-07-13T05:23:23;3.05;;;1.40;;
81221;SDS011;70691;52.492;13.420;2023-07-13T05:25:48;5.40;;;1.55;;
81221;SDS011;70691;52.492;13.420;2023-07-13T05:28:14;9.95;;;1.70;;
81221;SDS011;70691;52.492;13.420;2023-07-13T05:30:40;3.55;;;1.80;;
81221;SDS011;70691;52.492;13.420;2023-07-13T05:33:11;5.15;;;1.90;;
81221;SDS011;70691;52.492;13.420;2023-07-13T05:35:37;5.65;;;2.15;;
81221;SDS011;70691;52.492;13.420;2023-07-13T05:38:02;5.70;;;2.00;;
81221;SDS011;70691;52.492;13.420;2023-07-13T05:40:28;7.53;;;2.08;;
81221;SDS011;70691;52.492;13.420;2023-07-13T05:42:54;7.20;;;1.70;;
81221;SDS011;70691;52.492;13.420;2023-07-13T05:45:19;5.72;;;1.80;;
81221;SDS011;70691;52.492;13.420;2023-07-13T05:47:45;7.38;;;2.13;;
81221;SDS011;70691;52.492;13.420;2023-07-13T05:50:11;3.70;;;1.60;;
81221;SDS011;70691;52.492;13.420;2023-07-13T05:52:36;6.25;;;1.75;;
81221;SDS011;70691;52.492;13.420;2023-07-13T05:55:02;5.18;;;1.60;;
81221;SDS011;70691;52.492;13.420;2023-07-13T05:57:29;4.93;;;1.75;;
81221;SDS011;70691;52.492;13.420;2023-07-13T05:59:55;6.00;;;1.80;;
81221;SDS011;70691;52.492;13.420;2023-07-13T06:02:21;6.07;;;2.00;;
81221;SDS011;70691;52.492;13.420;2023-07-13T06:04:46;5.60;;;1.80;;
81221;SDS011;70691;52.492;13.420;2023-07-13T06:07:12;7.00;;;1.67;;
81221;SDS011;70691;52.492;13.420;2023-07-13T06:09:37;4.28;;;1.80;;
81221;SDS011;70691;52.492;13.420;2023-07-13T06:12:03;2.60;;;1.67;;
81221;SDS011;70691;52.492;13.420;2023-07-13T06:14:29;5.85;;;1.65;;
81221;SDS011;70691;52.492;13.420;2023-07-13T06:16:55;6.05;;;1.88;;
81221;SDS011;70691;52.492;13.420;2023-07-13T06:19:21;4.68;;;2.17;;
81221;SDS011;70691;52.492;13.420;2023-07-13T06:21:46;5.32;;;1.92;;
81221;SDS011;70691;52.492;13.420;2023-07-13T06:24:12;7.95;;;1.80;;
81221;SDS011;70691;52.492;13.420;2023-07-13T06:26:38;7.38;;;2.08;;
81221;SDS011;70691;52.492;13.420;2023-07-13T06:29:04;4.95;;;1.80;;
81221;SDS011;70691;52.492;13.420;2023-07-13T06:31:32;5.78;;;2.08;;
81221;SDS011;70691;52.492;13.420;2023-07-13T06:33:57;5.15;;;1.63;;
81221;SDS011;70691;52.492;13.420;2023-07-13T06:36:23;6.38;;;2.15;;
81221;SDS011;70691;52.492;13.420;2023-07-13T06:38:49;4.07;;;1.70;;
81221;SDS011;70691;52.492;13.420;2023-07-13T06:41:14;4.50;;;2.03;;
81221;SDS011;70691;52.492;13.420;2023-07-13T06:43:40;4.50;;;1.77;;
81221;SDS011;70691;52.492;13.420;2023-07-13T06:46:06;5.32;;;1.77;;
81221;SDS011;70691;52.492;13.420;2023-07-13T06:48:32;6.53;;;1.73;;
81221;SDS011;70691;52.492;13.420;2023-07-13T06:50:57;8.00;;;1.88;;
81221;SDS011;70691;52.492;13.420;2023-07-13T06:53:24;10.45;;;2.42;;
81221;SDS011;70691;52.492;13.420;2023-07-13T06:55:50;11.10;;;1.73;;
81221;SDS011;70691;52.492;13.420;2023-07-13T06:58:17;5.00;;;1.70;;
81221;SDS011;70691;52.492;13.420;2023-07-13T07:00:43;6.57;;;1.58;;
81221;SDS011;70691;52.492;13.420;2023-07-13T07:03:09;3.83;;;1.40;;
81221;SDS011;70691;52.492;13.420;2023-07-13T07:05:35;5.70;;;2.20;;
81221;SDS011;70691;52.492;13.420;2023-07-13T07:08:00;7.75;;;1.90;;
81221;SDS011;70691;52.492;13.420;2023-07-13T07:10:26;8.00;;;1.50;;
81221;SDS011;70691;52.492;13.420;2023-07-13T07:12:54;5.15;;;1.73;;
81221;SDS011;70691;52.492;13.420;2023-07-13T07:15:19;7.13;;;1.67;;
81221;SDS011;70691;52.492;13.420;2023-07-13T07:17:45;6.53;;;2.08;;
81221;SDS011;70691;52.492;13.420;2023-07-13T07:20:11;7.15;;;1.30;;
81221;SDS011;70691;52.492;13.420;2023-07-13T07:22:37;3.72;;;1.13;;
81221;SDS011;70691;52.492;13.420;2023-07-13T07:25:03;4.72;;;1.27;;
81221;SDS011;70691;52.492;13.420;2023-07-13T07:27:28;9.23;;;1.60;;
81221;SDS011;70691;52.492;13.420;2023-07-13T07:29:54;9.90;;;1.27;;
81221;SDS011;70691;52.492;13.420;2023-07-13T07:32:20;3.08;;;1.33;;
81221;SDS011;70691;52.492;13.420;2023-07-13T07:34:46;2.03;;;1.10;;
81221;SDS011;70691;52.492;13.420;2023-07-13T07:37:13;4.28;;;1.25;;
81221;SDS011;70691;52.492;13.420;2023-07-13T07:39:39;2.25;;;1.00;;
81221;SDS011;70691;52.492;13.420;2023-07-13T07:42:05;2.55;;;0.73;;
81221;SDS011;70691;52.492;13.420;2023-07-13T07:44:31;4.85;;;1.13;;
81221;SDS011;70691;52.492;13.420;2023-07-13T07:46:57;3.40;;;0.90;;
81221;SDS011;70691;52.492;13.420;2023-07-13T07:49:23;3.35;;;0.90;;
81221;SDS011;70691;52.492;13.420;2023-07-13T07:51:49;4.15;;;1.08;;
81221;SDS011;70691;52.492;13.420;2023-07-13T07:54:15;3.22;;;1.00;;
81221;SDS011;70691;52.492;13.420;2023-07-13T07:56:41;3.95;;;1.23;;
81221;SDS011;70691;52.492;13.420;2023-07-13T07:59:07;5.47;;;1.17;;
81221;SDS011;70691;52.492;13.420;2023-07-13T08:01:33;2.97;;;1.00;;
81221;SDS011;70691;52.492;13.420;2023-07-13T08:03:58;5.60;;;1.42;;
81221;SDS011;70691;52.492;13.420;2023-07-13T08:06:24;5.40;;;1.38;;
81221;SDS011;70691;52.492;13.420;2023-07-13T08:08:50;4.60;;;1.48;;
81221;SDS011;70691;52.492;13.420;2023-07-13T08:11:16;2.85;;;1.17;;
81221;SDS011;70691;52.492;13.420;2023-07-13T08:13:42;3.55;;;1.38;;
81221;SDS011;70691;52.492;13.420;2023-07-13T08:16:08;6.15;;;1.40;;
81221;SDS011;70691;52.492;13.420;2023-07-13T08:18:33;3.88;;;1.52;;
81221;SDS011;70691;52.492;13.420;2023-07-13T08:21:03;1.48;;;0.90;;
81221;SDS011;70691;52.492;13.420;2023-07-13T08:23:30;3.72;;;1.50;;
81221;SDS011;70691;52.492;13.420;2023-07-13T08:25:56;5.80;;;1.00;;
81221;SDS011;70691;52.492;13.420;2023-07-13T08:28:22;3.20;;;1.02;;
81221;SDS011;70691;52.492;13.420;2023-07-13T08:30:48;5.57;;;1.20;;
81221;SDS011;70691;52.492;13.420;2023-07-13T08:33:17;6.80;;;1.35;;
81221;SDS011;70691;52.492;13.420;2023-07-13T08:35:47;3.47;;;1.40;;
81221;SDS011;70691;52.492;13.420;2023-07-13T08:38:13;5.82;;;1.00;;
81221;SDS011;70691;52.492;13.420;2023-07-13T08:40:39;5.30;;;1.40;;
81221;SDS011;70691;52.492;13.420;2023-07-13T08:43:07;6.28;;;1.27;;
81221;SDS011;70691;52.492;13.420;2023-07-13T08:45:46;3.97;;;1.10;;
81221;SDS011;70691;52.492;13.420;2023-07-13T08:48:23;3.58;;;1.23;;
81221;SDS011;70691;52.492;13.420;2023-07-13T08:53:46;8.82;;;1.45;;
81221;SDS011;70691;52.492;13.420;2023-07-13T08:56:19;5.03;;;1.50;;
81221;SDS011;70691;52.492;13.420;2023-07-13T08:58:47;2.40;;;1.17;;
81221;SDS011;70691;52.492;13.420;2023-07-13T09:01:22;4.35;;;1.63;;
81221;SDS011;70691;52.492;13.420;2023-07-13T09:06:27;4.50;;;1.20;;
81221;SDS011;70691;52.492;13.420;2023-07-13T09:09:02;4.13;;;1.25;;
81221;SDS011;70691;52.492;13.420;2023-07-13T09:11:54;4.72;;;1.15;;
81221;SDS011;70691;52.492;13.420;2023-07-13T09:17:19;5.22;;;0.95;;
81221;SDS011;70691;52.492;13.420;2023-07-13T09:19:53;4.82;;;1.75;;
81221;SDS011;70691;52.492;13.420;2023-07-13T09:22:25;4.22;;;1.15;;
81221;SDS011;70691;52.492;13.420;2023-07-13T09:24:55;5.80;;;1.42;;
81221;SDS011;70691;52.492;13.420;2023-07-13T09:27:26;3.05;;;0.82;;
81221;SDS011;70691;52.492;13.420;2023-07-13T09:30:04;5.05;;;1.13;;
81221;SDS011;70691;52.492;13.420;2023-07-13T09:32:39;1.80;;;0.90;;
81221;SDS011;70691;52.492;13.420;2023-07-13T09:35:11;4.10;;;1.35;;
81221;SDS011;70691;52.492;13.420;2023-07-13T09:37:38;6.25;;;1.77;;
81221;SDS011;70691;52.492;13.420;2023-07-13T09:40:08;3.72;;;1.45;;
81221;SDS011;70691;52.492;13.420;2023-07-13T09:42:40;5.65;;;1.00;;
81221;SDS011;70691;52.492;13.420;2023-07-13T09:45:06;6.30;;;1.42;;
81221;SDS011;70691;52.492;13.420;2023-07-13T09:47:32;5.90;;;2.35;;
81221;SDS011;70691;52.492;13.420;2023-07-13T09:50:06;8.63;;;2.47;;
81221;SDS011;70691;52.492;13.420;2023-07-13T09:52:40;2.83;;;1.63;;
81221;SDS011;70691;52.492;13.420;2023-07-13T09:55:29;6.00;;;2.38;;
81221;SDS011;70691;52.492;13.420;2023-07-13T09:58:20;8.48;;;3.20;;
81221;SDS011;70691;52.492;13.420;2023-07-13T10:01:02;7.72;;;2.15;;
81221;SDS011;70691;52.492;13.420;2023-07-13T10:03:33;6.30;;;1.98;;
81221;SDS011;70691;52.492;13.420;2023-07-13T10:06:13;4.05;;;1.75;;
81221;SDS011;70691;52.492;13.420;2023-07-13T10:08:41;13.47;;;3.57;;
81221;SDS011;70691;52.492;13.420;2023-07-13T10:11:17;3.70;;;3.15;;
81221;SDS011;70691;52.492;13.420;2023-07-13T10:13:58;10.70;;;2.92;;
81221;SDS011;70691;52.492;13.420;2023-07-13T10:16:29;4.65;;;2.40;;
81221;SDS011;70691;52.492;13.420;2023-07-13T10:19:42;4.50;;;2.45;;
81221;SDS011;70691;52.492;13.420;2023-07-13T10:21:55;5.25;;;2.40;;
81221;SDS011;70691;52.492;13.420;2023-07-13T10:24:24;8.18;;;2.05;;
81221;SDS011;70691;52.492;13.420;2023-07-13T10:29:45;6.95;;;2.17;;
81221;SDS011;70691;52.492;13.420;2023-07-13T10:32:13;4.57;;;2.10;;
81221;SDS011;70691;52.492;13.420;2023-07-13T10:34:41;8.68;;;2.25;;
81221;SDS011;70691;52.492;13.420;2023-07-13T10:37:22;13.70;;;2.50;;
81221;SDS011;70691;52.492;13.420;2023-07-13T10:39:53;3.95;;;1.83;;
81221;SDS011;70691;52.492;13.420;2023-07-13T10:42:27;4.22;;;1.95;;
81221;SDS011;70691;52.492;13.420;2023-07-13T10:44:57;6.90;;;2.15;;
81221;SDS011;70691;52.492;13.420;2023-07-13T10:47:22;3.10;;;1.85;;
81221;SDS011;70691;52.492;13.420;2023-07-13T10:49:50;3.25;;;1.80;;
81221;SDS011;70691;52.492;13.420;2023-07-13T10:57:59;3.90;;;1.63;;
81221;SDS011;70691;52.492;13.420;2023-07-13T11:00:26;3.92;;;1.88;;
81221;SDS011;70691;52.492;13.420;2023-07-13T11:02:56;4.70;;;2.38;;
81221;SDS011;70691;52.492;13.420;2023-07-13T11:08:04;5.15;;;1.70;;
81221;SDS011;70691;52.492;13.420;2023-07-13T11:10:52;4.75;;;2.00;;
81221;SDS011;70691;52.492;13.420;2023-07-13T11:13:55;3.40;;;1.85;;
81221;SDS011;70691;52.492;13.420;2023-07-13T11:18:52;3.50;;;1.60;;
81221;SDS011;70691;52.492;13.420;2023-07-13T11:22:01;4.05;;;1.80;;
81221;SDS011;70691;52.492;13.420;2023-07-13T11:24:29;4.50;;;2.33;;
81221;SDS011;70691;52.492;13.420;2023-07-13T11:27:49;6.00;;;2.30;;
81221;SDS011;70691;52.492;13.420;2023-07-13T11:38:18;6.57;;;1.75;;
81221;SDS011;70691;52.492;13.420;2023-07-13T11:40:46;2.88;;;1.55;;
81221;SDS011;70691;52.492;13.420;2023-07-13T11:43:14;4.72;;;2.05;;
81221;SDS011;70691;52.492;13.420;2023-07-13T11:45:41;5.38;;;2.20;;
81221;SDS011;70691;52.492;13.420;2023-07-13T11:48:21;11.13;;;2.38;;
81221;SDS011;70691;52.492;13.420;2023-07-13T11:50:57;2.83;;;1.83;;
81221;SDS011;70691;52.492;13.420;2023-07-13T11:53:28;5.57;;;2.25;;
81221;SDS011;70691;52.492;13.420;2023-07-13T11:55:59;5.18;;;1.98;;
81221;SDS011;70691;52.492;13.420;2023-07-13T11:58:26;4.88;;;2.13;;
81221;SDS011;70691;52.492;13.420;2023-07-13T12:00:53;6.68;;;2.15;;
81221;SDS011;70691;52.492;13.420;2023-07-13T12:05:57;4.20;;;1.60;;
81221;SDS011;70691;52.492;13.420;2023-07-13T12:08:28;4.93;;;2.00;;
81221;SDS011;70691;52.492;13.420;2023-07-13T12:10:59;4.85;;;1.67;;
81221;SDS011;70691;52.492;13.420;2023-07-13T12:13:34;4.40;;;1.73;;
81221;SDS011;70691;52.492;13.420;2023-07-13T12:16:02;4.80;;;1.95;;
81221;SDS011;70691;52.492;13.420;2023-07-13T12:18:33;8.15;;;3.97;;
81221;SDS011;70691;52.492;13.420;2023-07-13T12:20:59;4.97;;;2.30;;
81221;SDS011;70691;52.492;13.420;2023-07-13T12:23:27;5.88;;;1.90;;
81221;SDS011;70691;52.492;13.420;2023-07-13T12:25:59;4.55;;;1.92;;
81221;SDS011;70691;52.492;13.420;2023-07-13T12:28:33;9.60;;;1.90;;
81221;SDS011;70691;52.492;13.420;2023-07-13T12:36:37;4.53;;;1.55;;
81221;SDS011;70691;52.492;13.420;2023-07-13T12:39:14;5.93;;;2.22;;
81221;SDS011;70691;52.492;13.420;2023-07-13T12:41:43;4.07;;;1.60;;
81221;SDS011;70691;52.492;13.420;2023-07-13T12:44:29;7.10;;;2.22;;
81221;SDS011;70691;52.492;13.420;2023-07-13T12:46:58;7.82;;;1.77;;
81221;SDS011;70691;52.492;13.420;2023-07-13T12:49:31;5.72;;;1.67;;
81221;SDS011;70691;52.492;13.420;2023-07-13T12:52:00;4.47;;;1.88;;
81221;SDS011;70691;52.492;13.420;2023-07-13T12:54:28;4.55;;;1.70;;
81221;SDS011;70691;52.492;13.420;2023-07-13T12:56:55;4.55;;;1.20;;
81221;SDS011;70691;52.492;13.420;2023-07-13T12:59:23;3.03;;;1.00;;
81221;SDS011;70691;52.492;13.420;2023-07-13T13:01:53;5.45;;;1.70;;
81221;SDS011;70691;52.492;13.420;2023-07-13T13:04:19;4.57;;;1.70;;
81221;SDS011;70691;52.492;13.420;2023-07-13T13:06:46;7.25;;;2.30;;
81221;SDS011;70691;52.492;13.420;2023-07-13T13:09:14;4.50;;;1.40;;
81221;SDS011;70691;52.492;13.420;2023-07-13T13:11:41;4.53;;;1.60;;
81221;SDS011;70691;52.492;13.420;2023-07-13T13:14:07;6.30;;;1.67;;
81221;SDS011;70691;52.492;13.420;2023-07-13T13:16:52;4.35;;;1.60;;
81221;SDS011;70691;52.492;13.420;2023-07-13T13:19:19;5.28;;;1.10;;
81221;SDS011;70691;52.492;13.420;2023-07-13T13:24:18;5.50;;;1.27;;
81221;SDS011;70691;52.492;13.420;2023-07-13T13:26:46;3.92;;;1.20;;
81221;SDS011;70691;52.492;13.420;2023-07-13T13:29:17;5.53;;;1.33;;
81221;SDS011;70691;52.492;13.420;2023-07-13T13:31:45;5.65;;;1.83;;
81221;SDS011;70691;52.492;13.420;2023-07-13T13:34:12;7.72;;;1.80;;
81221;SDS011;70691;52.492;13.420;2023-07-13T13:36:39;5.63;;;1.58;;
81221;SDS011;70691;52.492;13.420;2023-07-13T13:39:08;5.63;;;1.30;;
81221;SDS011;70691;52.492;13.420;2023-07-13T13:41:45;4.47;;;1.13;;
81221;SDS011;70691;52.492;13.420;2023-07-13T13:44:10;3.53;;;1.42;;
81221;SDS011;70691;52.492;13.420;2023-07-13T13:46:38;1.83;;;1.10;;
81221;SDS011;70691;52.492;13.420;2023-07-13T13:49:04;6.38;;;1.33;;
81221;SDS011;70691;52.492;13.420;2023-07-13T13:51:29;3.58;;;0.90;;
81221;SDS011;70691;52.492;13.420;2023-07-13T13:53:55;3.92;;;1.05;;
81221;SDS011;70691;52.492;13.420;2023-07-13T13:56:21;7.32;;;1.05;;
81221;SDS011;70691;52.492;13.420;2023-07-13T13:58:46;3.30;;;0.98;;
81221;SDS011;70691;52.492;13.420;2023-07-13T14:01:13;5.65;;;1.45;;
81221;SDS011;70691;52.492;13.420;2023-07-13T14:03:44;6.95;;;1.38;;
81221;SDS011;70691;52.492;13.420;2023-07-13T14:06:13;8.65;;;1.83;;
81221;SDS011;70691;52.492;13.420;2023-07-13T14:08:40;5.95;;;1.27;;
81221;SDS011;70691;52.492;13.420;2023-07-13T14:11:07;8.13;;;1.88;;
81221;SDS011;70691;52.492;13.420;2023-07-13T14:13:38;6.50;;;1.30;;
81221;SDS011;70691;52.492;13.420;2023-07-13T14:16:09;2.70;;;1.52;;
81221;SDS011;70691;52.492;13.420;2023-07-13T14:18:37;4.65;;;1.00;;
81221;SDS011;70691;52.492;13.420;2023-07-13T14:21:04;3.50;;;1.08;;
81221;SDS011;70691;52.492;13.420;2023-07-13T14:23:43;4.20;;;1.08;;
81221;SDS011;70691;52.492;13.420;2023-07-13T14:26:17;3.75;;;1.05;;
81221;SDS011;70691;52.492;13.420;2023-07-13T14:28:52;8.27;;;1.10;;
81221;SDS011;70691;52.492;13.420;2023-07-13T14:31:20;4.22;;;1.20;;
81221;SDS011;70691;52.492;13.420;2023-07-13T14:33:48;4.68;;;1.25;;
81221;SDS011;70691;52.492;13.420;2023-07-13T14:36:30;7.90;;;0.95;;
81221;SDS011;70691;52.492;13.420;2023-07-13T14:38:58;4.32;;;1.58;;
81221;SDS011;70691;52.492;13.420;2023-07-13T14:41:26;10.65;;;1.20;;
81221;SDS011;70691;52.492;13.420;2023-07-13T14:43:52;5.97;;;1.00;;
81221;SDS011;70691;52.492;13.420;2023-07-13T14:46:29;3.17;;;1.13;;
81221;SDS011;70691;52.492;13.420;2023-07-13T14:51:55;6.18;;;1.10;;
81221;SDS011;70691;52.492;13.420;2023-07-13T14:54:25;4.97;;;1.30;;
81221;SDS011;70691;52.492;13.420;2023-07-13T14:56:51;3.58;;;1.20;;
81221;SDS011;70691;52.492;13.420;2023-07-13T14:59:17;6.65;;;1.10;;
81221;SDS011;70691;52.492;13.420;2023-07-13T15:01:46;5.03;;;0.80;;
81221;SDS011;70691;52.492;13.420;2023-07-13T15:04:13;4.55;;;0.95;;
81221;SDS011;70691;52.492;13.420;2023-07-13T15:06:59;7.15;;;1.08;;
81221;SDS011;70691;52.492;13.420;2023-07-13T15:09:27;5.47;;;1.15;;
81221;SDS011;70691;52.492;13.420;2023-07-13T15:11:57;4.82;;;1.13;;
81221;SDS011;70691;52.492;13.420;2023-07-13T15:14:23;3.03;;;0.95;;
81221;SDS011;70691;52.492;13.420;2023-07-13T15:16:50;2.25;;;0.75;;
81221;SDS011;70691;52.492;13.420;2023-07-13T15:19:18;1.05;;;0.63;;
81221;SDS011;70691;52.492;13.420;2023-07-13T15:21:45;5.38;;;0.85;;
81221;SDS011;70691;52.492;13.420;2023-07-13T15:24:12;11.18;;;1.10;;
81221;SDS011;70691;52.492;13.420;2023-07-13T15:26:39;6.28;;;1.00;;